Aviation Digital Data Service (ADDS)

Output produced by METARs form (1615 UTC 23 September 2020)
found at http://aviationweather.gov/metar/data/
 
KHDC 231123Z 2312/2412 09008KT P6SM SCT015 BKN050 
     FM231300 10008KT P6SM BKN015 
     FM231600 12009KT P6SM VCSH BKN020 
     FM232200 13009KT 5SM -SHRA BR VCTS BKN015CB 
     FM240300 14009KT P6SM VCSH BKN008